Time;durP1;ratioP1;P1;durP2;ratioP2;P2;SDS_P1;SDS_P2;PMS_P1;PMS_P2;Temp;Humidity;BMP_temperature;BMP_pressure;BME280_temperature;BME280_humidity;BME280_pressure;Samples;Min_cycle;Max_cycle;Signal;HPM_P1;HPM_P2
2020/12/29 00:01:37;;;;;;;;;2.75;1.00;;;;;;;;5041677;28;11555;-68
2020/12/29 00:04:03;;;;;;;;;3.00;1.75;;;;;;;;5039447;28;11557;-68
2020/12/29 00:06:30;;;;;;;;;0.00;0.00;;;;;;;;5042136;28;11505;-68
2020/12/29 00:08:56;;;;;;;;;1.75;1.00;;;;;;;;5038792;28;11568;-68
2020/12/29 00:11:22;;;;;;;;;3.50;1.00;;;;;;;;5042168;28;12242;-69
2020/12/29 00:13:48;;;;;;;;;2.75;1.00;;;;;;;;5039441;28;11525;-69
2020/12/29 00:16:14;;;;;;;;;0.00;0.00;;;;;;;;5040683;28;8848;-69
2020/12/29 00:18:40;;;;;;;;;1.00;1.00;;;;;;;;5040740;28;8853;-69
2020/12/29 00:21:06;;;;;;;;;1.00;1.00;;;;;;;;5039597;28;8864;-68
2020/12/29 00:23:33;;;;;;;;;1.00;0.00;;;;;;;;5041666;28;8868;-68
2020/12/29 00:25:59;;;;;;;;;2.00;0.00;;;;;;;;5038728;28;8844;-68
2020/12/29 00:28:25;;;;;;;;;1.00;1.00;;;;;;;;5042354;28;11690;-68
2020/12/29 00:30:51;;;;;;;;;1.50;0.00;;;;;;;;5038937;28;8816;-68
2020/12/29 00:33:17;;;;;;;;;1.00;0.00;;;;;;;;5041179;28;8888;-68
2020/12/29 00:35:43;;;;;;;;;2.00;0.75;;;;;;;;5039963;28;8853;-68
2020/12/29 00:38:09;;;;;;;;;1.00;0.00;;;;;;;;5039824;28;8936;-68
2020/12/29 00:40:35;;;;;;;;;1.00;0.00;;;;;;;;5040890;28;8841;-68
2020/12/29 00:43:01;;;;;;;;;2.75;0.75;;;;;;;;5038897;28;8922;-68
2020/12/29 00:45:27;;;;;;;;;0.50;0.50;;;;;;;;5041916;28;11485;-68
2020/12/29 00:47:53;;;;;;;;;0.00;0.00;;;;;;;;5034306;28;8820;-68
2020/12/29 00:50:19;;;;;;;;;1.50;0.00;;;;;;;;5041580;28;8849;-69
2020/12/29 00:52:45;;;;;;;;;0.00;0.00;;;;;;;;5039145;28;9558;-69
2020/12/29 00:55:11;;;;;;;;;1.25;0.00;;;;;;;;5040082;28;8966;-68
2020/12/29 00:57:38;;;;;;;;;0.50;0.50;;;;;;;;5040185;28;8838;-70
2020/12/29 01:00:04;;;;;;;;;1.00;1.00;;;;;;;;5039084;28;8860;-67
2020/12/29 01:02:30;;;;;;;;;0.50;0.25;;;;;;;;5041183;28;11529;-68
2020/12/29 01:04:56;;;;;;;;;0.50;0.00;;;;;;;;5038241;28;12190;-68
2020/12/29 01:07:22;;;;;;;;;0.00;0.00;;;;;;;;5041851;28;8834;-70
2020/12/29 01:09:48;;;;;;;;;1.00;0.00;;;;;;;;5038840;28;8859;-68
2020/12/29 01:12:14;;;;;;;;;0.00;0.00;;;;;;;;5040055;28;11537;-68
2020/12/29 01:14:41;;;;;;;;;2.75;0.75;;;;;;;;5039782;28;8938;-67
2020/12/29 01:17:07;;;;;;;;;0.00;0.00;;;;;;;;5038760;28;9580;-67
2020/12/29 01:19:33;;;;;;;;;1.00;0.25;;;;;;;;5040737;28;11479;-69
2020/12/29 01:21:59;;;;;;;;;1.00;0.00;;;;;;;;5037763;28;11525;-68
2020/12/29 01:24:25;;;;;;;;;2.50;0.25;;;;;;;;5034162;28;8848;-69
2020/12/29 01:26:51;;;;;;;;;2.75;0.25;;;;;;;;5041002;28;8867;-69
2020/12/29 01:29:17;;;;;;;;;0.25;0.25;;;;;;;;5038947;28;9577;-68
2020/12/29 01:31:43;;;;;;;;;2.00;0.25;;;;;;;;5039818;28;8867;-68
2020/12/29 01:34:09;;;;;;;;;2.00;0.00;;;;;;;;5039596;28;8849;-67
2020/12/29 01:36:35;;;;;;;;;2.00;0.00;;;;;;;;5038602;28;11509;-68
2020/12/29 01:39:01;;;;;;;;;0.00;0.00;;;;;;;;5040505;28;8841;-67
2020/12/29 01:41:27;;;;;;;;;1.50;0.75;;;;;;;;5038036;28;9576;-69
2020/12/29 01:43:53;;;;;;;;;1.00;0.00;;;;;;;;5041140;28;8825;-68
2020/12/29 01:46:19;;;;;;;;;0.00;0.00;;;;;;;;5038338;28;8864;-68
2020/12/29 01:48:46;;;;;;;;;0.00;0.00;;;;;;;;5039963;28;8859;-68
2020/12/29 01:51:12;;;;;;;;;0.75;0.00;;;;;;;;5038930;28;12292;-68
2020/12/29 01:53:39;;;;;;;;;0.00;0.00;;;;;;;;5038995;28;11535;-68
2020/12/29 01:56:07;;;;;;;;;0.00;0.00;;;;;;;;5039894;28;8845;-67
2020/12/29 01:58:35;;;;;;;;;0.00;0.00;;;;;;;;5038194;28;11597;-68
2020/12/29 02:01:01;;;;;;;;;0.00;0.00;;;;;;;;5040270;28;11486;-68
2020/12/29 02:03:27;;;;;;;;;0.25;0.00;;;;;;;;5037927;28;11557;-69
2020/12/29 02:05:54;;;;;;;;;0.00;0.00;;;;;;;;5040874;28;8825;-69
2020/12/29 02:08:20;;;;;;;;;0.00;0.00;;;;;;;;5038002;28;12258;-68
2020/12/29 02:10:46;;;;;;;;;0.00;0.00;;;;;;;;5040098;28;11512;-69
2020/12/29 02:13:12;;;;;;;;;0.00;0.00;;;;;;;;5038819;28;11520;-69
2020/12/29 02:15:38;;;;;;;;;0.75;0.25;;;;;;;;5038759;28;8853;-68
2020/12/29 02:18:04;;;;;;;;;0.00;0.00;;;;;;;;5039942;28;8845;-68
2020/12/29 02:20:30;;;;;;;;;0.75;0.00;;;;;;;;5037831;28;8882;-67
2020/12/29 02:22:57;;;;;;;;;0.00;0.00;;;;;;;;5041104;28;8849;-68
2020/12/29 02:25:23;;;;;;;;;0.00;0.00;;;;;;;;5041291;28;9014;-67
2020/12/29 02:27:50;;;;;;;;;1.00;0.00;;;;;;;;5043900;28;11515;-68
2020/12/29 02:30:16;;;;;;;;;0.00;0.00;;;;;;;;5042075;28;8821;-68
2020/12/29 02:32:43;;;;;;;;;2.25;0.00;;;;;;;;5042882;28;11614;-68
2020/12/29 02:35:10;;;;;;;;;1.00;1.00;;;;;;;;5042727;28;11500;-67
2020/12/29 02:37:36;;;;;;;;;0.00;0.00;;;;;;;;5041876;28;11495;-67
2020/12/29 02:40:04;;;;;;;;;0.00;0.00;;;;;;;;5043474;28;12210;-67
2020/12/29 02:42:30;;;;;;;;;1.00;0.00;;;;;;;;5040996;28;11536;-68
2020/12/29 02:44:56;;;;;;;;;1.75;0.50;;;;;;;;5043826;28;11501;-67
2020/12/29 02:47:22;;;;;;;;;0.00;0.00;;;;;;;;5040841;28;8848;-67
2020/12/29 02:49:47;;;;;;;;;0.00;0.00;;;;;;;;5043325;28;8814;-68
2020/12/29 02:52:13;;;;;;;;;0.00;0.00;;;;;;;;5041609;28;8934;-68
2020/12/29 02:54:39;;;;;;;;;0.00;0.00;;;;;;;;5042276;28;8824;-67
2020/12/29 02:57:06;;;;;;;;;0.00;0.00;;;;;;;;5042759;28;8838;-68
2020/12/29 02:59:32;;;;;;;;;0.00;0.00;;;;;;;;5041203;28;8925;-68
2020/12/29 03:01:58;;;;;;;;;0.50;0.00;;;;;;;;5043614;28;11606;-68
2020/12/29 03:04:24;;;;;;;;;0.00;0.00;;;;;;;;5040332;28;8848;-68
2020/12/29 03:06:50;;;;;;;;;0.00;0.00;;;;;;;;5043565;28;11535;-68
2020/12/29 03:09:16;;;;;;;;;0.00;0.00;;;;;;;;5041052;28;8857;-68
2020/12/29 03:11:43;;;;;;;;;0.00;0.00;;;;;;;;5042228;28;8925;-68
2020/12/29 03:14:10;;;;;;;;;0.00;0.00;;;;;;;;5041949;28;11503;-67
2020/12/29 03:16:36;;;;;;;;;0.00;0.00;;;;;;;;5041169;28;11510;-67
2020/12/29 03:19:03;;;;;;;;;0.50;0.50;;;;;;;;5042824;28;12258;-68
2020/12/29 03:21:29;;;;;;;;;1.00;0.00;;;;;;;;5040112;28;11499;-68
2020/12/29 03:23:55;;;;;;;;;0.00;0.00;;;;;;;;5043184;28;12340;-68
2020/12/29 03:26:21;;;;;;;;;0.00;0.00;;;;;;;;5040327;28;9556;-68
2020/12/29 03:28:47;;;;;;;;;1.00;0.00;;;;;;;;5042645;28;11517;-68
2020/12/29 03:31:15;;;;;;;;;0.00;0.00;;;;;;;;5040870;28;11520;-68
2020/12/29 03:33:41;;;;;;;;;0.00;0.00;;;;;;;;5041687;28;8949;-68
2020/12/29 03:36:07;;;;;;;;;0.00;0.00;;;;;;;;5041635;28;11524;-68
2020/12/29 03:38:33;;;;;;;;;0.00;0.00;;;;;;;;5040448;28;11520;-68
2020/12/29 03:41:00;;;;;;;;;0.00;0.00;;;;;;;;5042501;28;11486;-69
2020/12/29 03:43:27;;;;;;;;;0.50;0.50;;;;;;;;5039802;28;8836;-68
2020/12/29 03:45:53;;;;;;;;;0.00;0.00;;;;;;;;5042619;28;11575;-69
2020/12/29 03:48:20;;;;;;;;;0.00;0.00;;;;;;;;5040115;28;11524;-68
2020/12/29 03:50:46;;;;;;;;;1.00;0.00;;;;;;;;5042099;28;8844;-68
2020/12/29 03:53:13;;;;;;;;;0.75;0.00;;;;;;;;5040381;28;12336;-67
2020/12/29 03:55:39;;;;;;;;;1.50;1.00;;;;;;;;5040807;28;11499;-68
2020/12/29 03:58:05;;;;;;;;;0.75;0.00;;;;;;;;5041308;28;11567;-68
2020/12/29 04:00:31;;;;;;;;;0.00;0.00;;;;;;;;5039671;28;11516;-68
2020/12/29 04:02:57;;;;;;;;;0.00;0.00;;;;;;;;5042531;28;11518;-68
2020/12/29 04:05:24;;;;;;;;;0.00;0.00;;;;;;;;5035262;28;11511;-69
2020/12/29 04:07:50;;;;;;;;;0.00;0.00;;;;;;;;5042083;28;8830;-69
2020/12/29 04:10:17;;;;;;;;;0.00;0.00;;;;;;;;5040026;28;11580;-68
2020/12/29 04:12:43;;;;;;;;;0.00;0.00;;;;;;;;5041067;28;8848;-69
2020/12/29 04:15:09;;;;;;;;;0.00;0.00;;;;;;;;5040599;28;11514;-69
2020/12/29 04:17:36;;;;;;;;;0.00;0.00;;;;;;;;5040132;28;11517;-69
2020/12/29 04:20:03;;;;;;;;;0.00;0.00;;;;;;;;5041450;28;11500;-68
2020/12/29 04:22:30;;;;;;;;;0.00;0.00;;;;;;;;5039033;28;11530;-68
2020/12/29 04:24:57;;;;;;;;;2.00;0.00;;;;;;;;5042071;28;11584;-69
2020/12/29 04:27:22;;;;;;;;;1.00;0.00;;;;;;;;5034713;28;11499;-69
2020/12/29 04:29:49;;;;;;;;;0.00;0.00;;;;;;;;5041773;28;11513;-68
2020/12/29 04:32:15;;;;;;;;;2.00;0.00;;;;;;;;5039813;28;8845;-69
2020/12/29 04:34:41;;;;;;;;;1.00;1.00;;;;;;;;5040359;28;11585;-68
2020/12/29 04:37:07;;;;;;;;;1.00;0.00;;;;;;;;5040602;28;11513;-68
2020/12/29 04:39:33;;;;;;;;;0.50;0.00;;;;;;;;5039311;28;11546;-68
2020/12/29 04:42:02;;;;;;;;;1.25;0.00;;;;;;;;5041380;28;11586;-68
2020/12/29 04:44:30;;;;;;;;;0.50;0.00;;;;;;;;5038708;28;11510;-68
2020/12/29 04:46:56;;;;;;;;;0.00;0.00;;;;;;;;5041178;28;11578;-68
2020/12/29 04:49:22;;;;;;;;;0.00;0.00;;;;;;;;5038333;28;11510;-68
2020/12/29 04:51:49;;;;;;;;;0.75;0.75;;;;;;;;5041668;28;11571;-68
2020/12/29 04:54:18;;;;;;;;;2.00;0.00;;;;;;;;5039110;28;11536;-69
2020/12/29 04:56:49;;;;;;;;;2.50;0.00;;;;;;;;5040495;28;11530;-69
2020/12/29 04:59:18;;;;;;;;;1.25;0.00;;;;;;;;5039089;28;11500;-68
2020/12/29 05:01:44;;;;;;;;;0.25;0.00;;;;;;;;5040838;28;11602;-68
2020/12/29 05:04:10;;;;;;;;;0.00;0.00;;;;;;;;5039415;28;11531;-68
2020/12/29 05:06:36;;;;;;;;;1.75;0.00;;;;;;;;5039608;28;8833;-68
2020/12/29 05:09:02;;;;;;;;;2.25;0.00;;;;;;;;5040690;28;8975;-68
2020/12/29 05:11:32;;;;;;;;;0.00;0.00;;;;;;;;5038275;28;11502;-68
2020/12/29 05:14:00;;;;;;;;;1.00;0.00;;;;;;;;5041032;28;11588;-68
2020/12/29 05:16:26;;;;;;;;;0.00;0.00;;;;;;;;5037864;28;11502;-68
2020/12/29 05:18:52;;;;;;;;;1.00;0.00;;;;;;;;5041269;28;11670;-68
2020/12/29 05:21:18;;;;;;;;;0.00;0.00;;;;;;;;5038845;28;11527;-68
2020/12/29 05:23:44;;;;;;;;;0.00;0.00;;;;;;;;5040461;28;8847;-69
2020/12/29 05:26:11;;;;;;;;;1.75;0.00;;;;;;;;5039119;28;11538;-69
2020/12/29 05:28:38;;;;;;;;;0.00;0.00;;;;;;;;5038254;28;12195;-68
2020/12/29 05:31:05;;;;;;;;;3.00;0.00;;;;;;;;5038431;28;11535;-68
2020/12/29 05:33:31;;;;;;;;;0.00;0.00;;;;;;;;5040720;28;11537;-69
2020/12/29 05:35:58;;;;;;;;;0.00;0.00;;;;;;;;5037824;28;11503;-68
2020/12/29 05:38:25;;;;;;;;;0.25;0.00;;;;;;;;5041049;28;12169;-69
2020/12/29 05:40:51;;;;;;;;;0.00;0.00;;;;;;;;5041028;28;11476;-68
2020/12/29 05:43:26;;;;;;;;;0.00;0.00;;;;;;;;5038659;28;11608;-69
2020/12/29 05:45:52;;;;;;;;;0.00;0.00;;;;;;;;5033633;28;11551;-67
2020/12/29 05:48:20;;;;;;;;;0.00;0.00;;;;;;;;5040831;28;11475;-69
2020/12/29 05:50:46;;;;;;;;;1.00;0.00;;;;;;;;5038557;28;11534;-68
2020/12/29 05:53:12;;;;;;;;;1.00;0.00;;;;;;;;5039831;28;12372;-68
2020/12/29 05:55:38;;;;;;;;;0.00;0.00;;;;;;;;5039598;28;8846;-68
2020/12/29 05:58:05;;;;;;;;;1.00;0.00;;;;;;;;5039011;28;11500;-68
2020/12/29 06:00:31;;;;;;;;;1.00;0.00;;;;;;;;5044322;28;11783;-69
2020/12/29 06:02:58;;;;;;;;;0.00;0.00;;;;;;;;5041606;28;11551;-68
2020/12/29 06:05:25;;;;;;;;;0.00;0.00;;;;;;;;5045082;28;11497;-68
2020/12/29 06:07:53;;;;;;;;;0.00;0.00;;;;;;;;5037218;28;11519;-68
2020/12/29 06:10:21;;;;;;;;;0.00;0.00;;;;;;;;5044661;28;11543;-69
2020/12/29 06:12:50;;;;;;;;;0.00;0.00;;;;;;;;5041868;28;11505;-68
2020/12/29 06:15:21;;;;;;;;;0.00;0.00;;;;;;;;5044110;28;11518;-69
2020/12/29 06:17:53;;;;;;;;;0.00;0.00;;;;;;;;5041769;28;11508;-69
2020/12/29 06:20:19;;;;;;;;;0.00;0.00;;;;;;;;5044408;28;11477;-69
2020/12/29 06:22:48;;;;;;;;;0.00;0.00;;;;;;;;5042042;28;11587;-68
2020/12/29 06:25:16;;;;;;;;;0.00;0.00;;;;;;;;5043918;28;8852;-69
2020/12/29 06:27:45;;;;;;;;;0.00;0.00;;;;;;;;5042406;28;11539;-69
2020/12/29 06:30:12;;;;;;;;;0.00;0.00;;;;;;;;5042859;28;11550;-69
2020/12/29 06:32:40;;;;;;;;;2.00;0.00;;;;;;;;5042697;28;11478;-68
2020/12/29 06:35:06;;;;;;;;;0.00;0.00;;;;;;;;5042354;28;11613;-69
2020/12/29 06:37:36;;;;;;;;;0.00;0.00;;;;;;;;5043191;28;12219;-68
2020/12/29 06:40:05;;;;;;;;;0.00;0.00;;;;;;;;5041725;28;8905;-68
2020/12/29 06:42:31;;;;;;;;;0.00;0.00;;;;;;;;5043365;28;11551;-68
2020/12/29 06:44:58;;;;;;;;;2.00;0.00;;;;;;;;5040459;28;11553;-68
2020/12/29 06:47:25;;;;;;;;;1.00;0.00;;;;;;;;5043991;28;11489;-68
2020/12/29 06:49:51;;;;;;;;;1.00;0.00;;;;;;;;5036320;28;11513;-69
2020/12/29 06:52:19;;;;;;;;;0.00;0.00;;;;;;;;5043601;28;11635;-69
2020/12/29 06:54:46;;;;;;;;;0.00;0.00;;;;;;;;5041214;28;11610;-69
2020/12/29 06:57:13;;;;;;;;;0.00;0.00;;;;;;;;5042548;28;11502;-70
2020/12/29 06:59:40;;;;;;;;;0.00;0.00;;;;;;;;5042034;28;11485;-69
2020/12/29 07:02:13;;;;;;;;;0.00;0.00;;;;;;;;5041567;28;11529;-69
2020/12/29 11:55:18;;;;;;;;;13.20;12.80;;;;;;;;5116030;27;13384;-67
2020/12/29 11:57:44;;;;;;;;;14.25;12.50;;;;;;;;5094484;28;8863;-69
2020/12/29 12:00:10;;;;;;;;;11.75;8.75;;;;;;;;5095429;28;11544;-73
2020/12/29 12:02:36;;;;;;;;;24.00;19.00;;;;;;;;5098935;28;11516;-76
2020/12/29 12:05:02;;;;;;;;;9.00;9.00;;;;;;;;5094153;28;8843;-73
2020/12/29 12:07:28;;;;;;;;;8.00;7.00;;;;;;;;5098592;28;8862;-73
2020/12/29 12:09:54;;;;;;;;;8.25;8.25;;;;;;;;5095498;28;9508;-77
2020/12/29 12:12:20;;;;;;;;;10.25;8.00;;;;;;;;5098032;28;8914;-73
2020/12/29 12:14:46;;;;;;;;;9.75;9.00;;;;;;;;5096342;28;12339;-76
2020/12/29 12:17:12;;;;;;;;;9.50;8.50;;;;;;;;5096990;28;11561;-75
2020/12/29 12:19:38;;;;;;;;;8.75;8.00;;;;;;;;5097664;28;9536;-79
2020/12/29 12:22:07;;;;;;;;;6.00;6.00;;;;;;;;5095955;28;8875;-73
2020/12/29 12:24:33;;;;;;;;;7.25;6.50;;;;;;;;5098291;28;8848;-81
2020/12/29 12:26:59;;;;;;;;;9.25;7.25;;;;;;;;5094527;28;11501;-76
2020/12/29 12:29:26;;;;;;;;;8.75;7.25;;;;;;;;5094810;28;8900;-77
2020/12/29 12:31:52;;;;;;;;;6.00;6.00;;;;;;;;5098169;28;8848;-77
2020/12/29 12:34:18;;;;;;;;;3.00;2.00;;;;;;;;5095137;28;11564;-74
2020/12/29 12:36:47;;;;;;;;;7.00;7.00;;;;;;;;5096857;28;9558;-73
2020/12/29 12:39:13;;;;;;;;;8.00;7.00;;;;;;;;5096535;28;8901;-73
2020/12/29 12:41:41;;;;;;;;;6.50;6.00;;;;;;;;5096551;28;11488;-75
2020/12/29 12:44:07;;;;;;;;;6.50;3.00;;;;;;;;5100599;28;9721;-77
2020/12/29 12:46:34;;;;;;;;;7.50;4.00;;;;;;;;5093401;28;11520;-78
2020/12/29 12:49:01;;;;;;;;;5.00;4.25;;;;;;;;5096470;28;8912;-78
2020/12/29 12:51:27;;;;;;;;;6.00;6.00;;;;;;;;5097404;28;11691;-78
2020/12/29 12:53:53;;;;;;;;;6.50;6.00;;;;;;;;5093077;28;11488;-77
2020/12/29 12:56:19;;;;;;;;;7.00;5.50;;;;;;;;5100290;28;11527;-77
2020/12/29 12:58:46;;;;;;;;;7.00;7.00;;;;;;;;5096075;28;8893;-76
2020/12/29 13:01:17;;;;;;;;;4.00;4.00;;;;;;;;5096574;28;8922;-73
2020/12/29 13:03:44;;;;;;;;;8.75;6.25;;;;;;;;5094774;28;11579;-72
2020/12/29 13:06:10;;;;;;;;;2.00;2.00;;;;;;;;5083629;28;12244;-72
2020/12/29 13:08:37;;;;;;;;;3.50;3.00;;;;;;;;5081532;28;11596;-72
2020/12/29 13:11:03;;;;;;;;;3.75;2.50;;;;;;;;5079042;28;8855;-71
2020/12/29 13:13:29;;;;;;;;;5.00;3.25;;;;;;;;5078702;28;11488;-70
2020/12/29 13:15:55;;;;;;;;;4.75;4.50;;;;;;;;5074948;28;11520;-69
2020/12/29 13:18:22;;;;;;;;;3.00;3.00;;;;;;;;5077632;28;8870;-70
2020/12/29 13:20:49;;;;;;;;;6.00;3.00;;;;;;;;5078381;28;9717;-71
2020/12/29 13:23:15;;;;;;;;;4.50;3.00;;;;;;;;5083339;28;11494;-71
2020/12/29 13:25:41;;;;;;;;;3.00;3.00;;;;;;;;5080316;28;11503;-71
2020/12/29 13:28:07;;;;;;;;;1.00;1.00;;;;;;;;5080463;28;10050;-72
2020/12/29 13:30:33;;;;;;;;;4.50;3.00;;;;;;;;5078894;28;8936;-71
2020/12/29 13:32:58;;;;;;;;;2.75;2.75;;;;;;;;5076836;28;11481;-70
2020/12/29 13:35:25;;;;;;;;;2.50;2.50;;;;;;;;5079168;28;8960;-71
2020/12/29 13:37:51;;;;;;;;;2.50;2.00;;;;;;;;5076879;28;8924;-71
2020/12/29 13:40:17;;;;;;;;;3.00;2.75;;;;;;;;5081849;28;11534;-70
2020/12/29 13:42:45;;;;;;;;;2.00;2.00;;;;;;;;5081500;28;11476;-72
2020/12/29 13:45:11;;;;;;;;;3.25;3.00;;;;;;;;5082669;28;11511;-72
2020/12/29 13:47:37;;;;;;;;;6.00;3.00;;;;;;;;5079406;28;11480;-73
2020/12/29 13:50:03;;;;;;;;;2.00;2.00;;;;;;;;5078501;28;8851;-73
2020/12/29 13:52:29;;;;;;;;;14.25;14.25;;;;;;;;5077102;28;8856;-72
2020/12/29 13:54:57;;;;;;;;;10.25;8.75;;;;;;;;5075633;28;11578;-73
2020/12/29 13:57:23;;;;;;;;;7.25;6.75;;;;;;;;5081047;28;11546;-69
2020/12/29 13:59:49;;;;;;;;;11.00;5.00;;;;;;;;5080290;28;11523;-70
2020/12/29 14:02:15;;;;;;;;;6.75;6.50;;;;;;;;5083653;28;8915;-70
2020/12/29 14:04:41;;;;;;;;;7.75;6.00;;;;;;;;5081925;28;8840;-70
2020/12/29 14:07:07;;;;;;;;;6.75;6.00;;;;;;;;5082743;28;9606;-70
2020/12/29 14:09:33;;;;;;;;;4.50;4.50;;;;;;;;5079831;28;8826;-70
2020/12/29 14:12:00;;;;;;;;;8.50;7.50;;;;;;;;5082690;28;8840;-69
2020/12/29 14:14:26;;;;;;;;;6.00;6.00;;;;;;;;5079774;28;8895;-70
2020/12/29 14:16:52;;;;;;;;;8.00;8.00;;;;;;;;5080580;28;11491;-70
2020/12/29 14:19:18;;;;;;;;;9.00;7.50;;;;;;;;5080511;28;8836;-70
2020/12/29 14:21:45;;;;;;;;;4.50;3.25;;;;;;;;5080941;28;12190;-69
2020/12/29 14:24:12;;;;;;;;;7.50;6.75;;;;;;;;5081463;28;11466;-70
2020/12/29 14:26:38;;;;;;;;;11.00;7.75;;;;;;;;5082796;28;11611;-70
2020/12/29 14:29:05;;;;;;;;;9.00;6.00;;;;;;;;5081636;28;11523;-70
2020/12/29 14:31:34;;;;;;;;;8.25;7.00;;;;;;;;5083469;28;11560;-71
2020/12/29 14:34:01;;;;;;;;;9.50;7.75;;;;;;;;5078896;28;11517;-71
2020/12/29 14:36:27;;;;;;;;;7.25;7.25;;;;;;;;5079274;28;11600;-71
2020/12/29 14:38:53;;;;;;;;;10.00;7.50;;;;;;;;5079043;28;11518;-72
2020/12/29 14:41:19;;;;;;;;;7.50;7.50;;;;;;;;5081196;28;8855;-73
2020/12/29 14:43:46;;;;;;;;;8.75;7.00;;;;;;;;5080512;28;11572;-70
2020/12/29 14:46:12;;;;;;;;;8.75;6.25;;;;;;;;5079224;28;8842;-69
2020/12/29 14:48:39;;;;;;;;;6.50;6.00;;;;;;;;5079359;28;11508;-69
2020/12/29 14:51:05;;;;;;;;;3.25;3.25;;;;;;;;5080836;28;11493;-71
2020/12/29 14:53:31;;;;;;;;;5.00;3.25;;;;;;;;5080674;28;11491;-70
2020/12/29 14:55:57;;;;;;;;;3.00;3.00;;;;;;;;5078083;28;11498;-71
2020/12/29 14:58:23;;;;;;;;;2.00;2.00;;;;;;;;5081388;28;8897;-70
2020/12/29 15:00:49;;;;;;;;;2.50;2.50;;;;;;;;5079153;28;8862;-71
2020/12/29 15:03:16;;;;;;;;;2.00;2.00;;;;;;;;5078841;28;8862;-69
2020/12/29 15:05:42;;;;;;;;;2.00;2.00;;;;;;;;5079078;28;8865;-70
2020/12/29 15:08:08;;;;;;;;;2.00;1.00;;;;;;;;5080916;28;11600;-70
2020/12/29 15:10:34;;;;;;;;;3.00;2.00;;;;;;;;5081751;28;8936;-69
2020/12/29 15:13:00;;;;;;;;;3.00;1.50;;;;;;;;5080297;28;12188;-71
2020/12/29 15:15:26;;;;;;;;;1.75;1.50;;;;;;;;5080733;28;8841;-70
2020/12/29 15:17:52;;;;;;;;;2.00;2.00;;;;;;;;5079590;28;8843;-71
2020/12/29 15:20:18;;;;;;;;;3.00;3.00;;;;;;;;5078195;28;9555;-71
2020/12/29 15:22:44;;;;;;;;;7.25;5.50;;;;;;;;5078668;28;8908;-70
2020/12/29 15:25:10;;;;;;;;;4.00;3.00;;;;;;;;5078723;28;11544;-72
2020/12/29 15:27:36;;;;;;;;;3.25;3.00;;;;;;;;5076527;28;8858;-71
2020/12/29 15:30:02;;;;;;;;;2.00;2.00;;;;;;;;5077649;28;8827;-69
2020/12/29 15:32:28;;;;;;;;;4.75;3.00;;;;;;;;5081102;28;8888;-69
2020/12/29 15:34:54;;;;;;;;;5.00;3.00;;;;;;;;5078988;28;11455;-70
2020/12/29 15:37:21;;;;;;;;;8.50;6.00;;;;;;;;5079944;28;8946;-70
2020/12/29 15:39:47;;;;;;;;;7.00;4.50;;;;;;;;5080007;28;9590;-74
2020/12/29 15:42:13;;;;;;;;;4.25;4.00;;;;;;;;5078939;28;12315;-70
2020/12/29 15:44:39;;;;;;;;;5.00;5.00;;;;;;;;5081017;28;11505;-73
2020/12/29 15:47:05;;;;;;;;;6.25;4.00;;;;;;;;5078332;28;9543;-70
2020/12/29 15:49:31;;;;;;;;;6.00;6.00;;;;;;;;5081070;28;8847;-70
2020/12/29 15:51:57;;;;;;;;;6.00;6.00;;;;;;;;5078316;28;9322;-69
2020/12/29 15:54:24;;;;;;;;;6.25;4.00;;;;;;;;5032007;28;10495;-65
2020/12/29 15:56:50;;;;;;;;;6.00;4.25;;;;;;;;5043570;28;8846;-69
2020/12/29 15:59:16;;;;;;;;;3.75;3.75;;;;;;;;5049426;28;11492;-66
2020/12/29 16:01:42;;;;;;;;;5.25;5.00;;;;;;;;5049600;28;11596;-73
2020/12/29 16:04:08;;;;;;;;;6.25;5.75;;;;;;;;5049455;28;8866;-75
2020/12/29 16:06:33;;;;;;;;;7.50;3.75;;;;;;;;5049268;28;8861;-73
2020/12/29 16:09:00;;;;;;;;;5.00;3.75;;;;;;;;5049625;28;8930;-75
2020/12/29 16:11:32;;;;;;;;;7.00;5.00;;;;;;;;5050024;28;8834;-78
2020/12/29 16:13:59;;;;;;;;;7.00;3.00;;;;;;;;5049328;28;11524;-75
2020/12/29 16:16:28;;;;;;;;;4.00;4.00;;;;;;;;5049410;28;11517;-75
2020/12/29 16:18:54;;;;;;;;;5.50;3.75;;;;;;;;5049133;28;12376;-73
2020/12/29 16:21:22;;;;;;;;;8.75;5.75;;;;;;;;5049072;28;11501;-73
2020/12/29 16:23:48;;;;;;;;;6.00;4.00;;;;;;;;5049229;28;8849;-68
2020/12/29 16:26:19;;;;;;;;;6.50;5.00;;;;;;;;5048866;28;11514;-71
2020/12/29 16:28:46;;;;;;;;;3.50;3.00;;;;;;;;5049214;28;12268;-72
2020/12/29 16:31:12;;;;;;;;;4.25;3.75;;;;;;;;5048195;28;11525;-73
2020/12/29 16:33:38;;;;;;;;;6.00;4.25;;;;;;;;5045837;28;11513;-71
2020/12/29 16:36:04;;;;;;;;;7.00;6.00;;;;;;;;5042541;28;11535;-73
2020/12/29 16:38:30;;;;;;;;;6.00;6.00;;;;;;;;5048435;28;8853;-73
2020/12/29 16:40:56;;;;;;;;;3.75;3.25;;;;;;;;5050848;28;9624;-72
2020/12/29 16:43:22;;;;;;;;;3.50;3.50;;;;;;;;5052033;28;8853;-72
2020/12/29 16:45:49;;;;;;;;;7.75;5.00;;;;;;;;5052539;28;11520;-75
2020/12/29 16:48:15;;;;;;;;;5.50;5.00;;;;;;;;5052582;28;12211;-74
2020/12/29 16:50:41;;;;;;;;;4.00;4.00;;;;;;;;5052255;28;11524;-76
2020/12/29 16:53:07;;;;;;;;;5.25;3.00;;;;;;;;5052256;28;8896;-72
2020/12/29 16:55:33;;;;;;;;;6.00;4.25;;;;;;;;5048006;28;11493;-75
2020/12/29 16:57:59;;;;;;;;;3.00;3.00;;;;;;;;5052719;28;8837;-73
2020/12/29 17:00:25;;;;;;;;;2.75;2.75;;;;;;;;5052264;28;8841;-78
2020/12/29 17:02:52;;;;;;;;;3.25;2.25;;;;;;;;5051519;28;8837;-72
2020/12/29 17:05:18;;;;;;;;;3.00;3.00;;;;;;;;5051793;28;9694;-71
2020/12/29 17:07:44;;;;;;;;;4.00;2.75;;;;;;;;5047683;28;11518;-73
2020/12/29 17:10:10;;;;;;;;;2.00;2.00;;;;;;;;5051490;28;9585;-72
2020/12/29 17:12:35;;;;;;;;;4.25;3.00;;;;;;;;5049630;28;8869;-72
2020/12/29 17:15:01;;;;;;;;;4.50;3.00;;;;;;;;5050424;28;8834;-70
2020/12/29 17:17:27;;;;;;;;;5.50;4.25;;;;;;;;5049921;28;8873;-69
2020/12/29 17:19:54;;;;;;;;;6.00;6.00;;;;;;;;5050423;28;8850;-72
2020/12/29 17:22:20;;;;;;;;;11.33;7.00;;;;;;;;5049308;28;9631;-70
2020/12/29 17:24:46;;;;;;;;;7.75;7.00;;;;;;;;5050308;28;11513;-72
2020/12/29 17:27:12;;;;;;;;;5.00;5.00;;;;;;;;5049734;28;8861;-72
2020/12/29 17:29:38;;;;;;;;;3.00;3.00;;;;;;;;5050919;28;8870;-72
2020/12/29 17:32:04;;;;;;;;;1.00;1.00;;;;;;;;5047998;28;8857;-71
2020/12/29 17:34:30;;;;;;;;;2.00;0.00;;;;;;;;5049047;28;8875;-71
2020/12/29 17:36:58;;;;;;;;;1.00;0.00;;;;;;;;5050068;28;11582;-71
2020/12/29 17:39:28;;;;;;;;;0.75;0.00;;;;;;;;5049716;28;8946;-72
2020/12/29 17:41:54;;;;;;;;;0.50;0.50;;;;;;;;4853704;28;92293;-72
2020/12/29 17:44:20;;;;;;;;;0.00;0.00;;;;;;;;5048778;28;11508;-72
2020/12/29 17:46:46;;;;;;;;;1.00;1.00;;;;;;;;5050432;28;11589;-72
2020/12/29 17:49:12;;;;;;;;;1.00;1.00;;;;;;;;5049715;28;8853;-72
2020/12/29 17:51:38;;;;;;;;;1.00;0.00;;;;;;;;5050312;28;8884;-71
2020/12/29 17:54:05;;;;;;;;;0.00;0.00;;;;;;;;5046647;28;8853;-71
2020/12/29 17:56:31;;;;;;;;;0.00;0.00;;;;;;;;5049671;28;8830;-72
2020/12/29 17:58:57;;;;;;;;;0.00;0.00;;;;;;;;5050030;28;11496;-72
2020/12/29 18:01:23;;;;;;;;;0.00;0.00;;;;;;;;5049397;28;8871;-72
2020/12/29 18:03:49;;;;;;;;;1.50;0.00;;;;;;;;5049868;28;8833;-73
2020/12/29 18:06:15;;;;;;;;;1.00;1.00;;;;;;;;5049491;28;11536;-73
2020/12/29 18:08:41;;;;;;;;;0.00;0.00;;;;;;;;5050402;28;8864;-72
2020/12/29 18:11:09;;;;;;;;;0.25;0.00;;;;;;;;5050231;28;8865;-72
2020/12/29 18:13:35;;;;;;;;;0.25;0.00;;;;;;;;5045514;28;11623;-72
2020/12/29 18:16:01;;;;;;;;;0.50;0.50;;;;;;;;5049281;28;11503;-72
2020/12/29 18:18:27;;;;;;;;;0.75;0.00;;;;;;;;5048928;28;11523;-69
2020/12/29 18:20:53;;;;;;;;;0.25;0.00;;;;;;;;5046353;28;8876;-70
2020/12/29 18:23:19;;;;;;;;;0.00;0.00;;;;;;;;5048691;28;11511;-70
2020/12/29 18:25:45;;;;;;;;;0.00;0.00;;;;;;;;5049824;28;8834;-72
2020/12/29 18:28:12;;;;;;;;;0.00;0.00;;;;;;;;5049144;28;9582;-77
2020/12/29 18:30:38;;;;;;;;;1.00;1.00;;;;;;;;5049587;28;8845;-75
2020/12/29 18:33:05;;;;;;;;;0.00;0.00;;;;;;;;5049589;28;11528;-72
2020/12/29 18:35:31;;;;;;;;;0.00;0.00;;;;;;;;5048709;28;9401;-73
2020/12/29 18:37:57;;;;;;;;;0.00;0.00;;;;;;;;5049326;28;11512;-73
2020/12/29 18:40:23;;;;;;;;;0.00;0.00;;;;;;;;5048423;28;11583;-73
2020/12/29 18:42:49;;;;;;;;;1.00;1.00;;;;;;;;5046468;28;8867;-72
2020/12/29 18:45:16;;;;;;;;;5.00;3.00;;;;;;;;5048773;28;8883;-72
2020/12/29 18:47:42;;;;;;;;;3.00;2.00;;;;;;;;5058936;28;10029;-72
2020/12/29 18:50:09;;;;;;;;;1.00;1.00;;;;;;;;5057331;28;11618;-73
2020/12/29 18:52:35;;;;;;;;;2.50;1.25;;;;;;;;5056771;28;11492;-72
2020/12/29 18:55:01;;;;;;;;;2.00;2.00;;;;;;;;5057734;28;11507;-72
2020/12/29 18:57:27;;;;;;;;;4.00;4.00;;;;;;;;5058837;28;8861;-72
2020/12/29 18:59:54;;;;;;;;;3.00;3.00;;;;;;;;5058962;28;8907;-72
2020/12/29 19:02:21;;;;;;;;;4.25;2.00;;;;;;;;5057107;28;8826;-71
2020/12/29 19:04:47;;;;;;;;;6.00;5.33;;;;;;;;5059752;28;11567;-71
2020/12/29 19:07:13;;;;;;;;;2.00;2.00;;;;;;;;5056758;28;11507;-72
2020/12/29 19:09:39;;;;;;;;;5.67;3.67;;;;;;;;5061355;28;8830;-72
2020/12/29 19:12:05;;;;;;;;;5.00;3.00;;;;;;;;5059546;28;12282;-72
2020/12/29 19:14:31;;;;;;;;;5.33;3.67;;;;;;;;5056989;28;8854;-72
2020/12/29 19:16:57;;;;;;;;;4.33;4.33;;;;;;;;5058666;28;8865;-72
2020/12/29 19:19:24;;;;;;;;;4.50;2.50;;;;;;;;5057644;28;8858;-72
2020/12/29 19:21:50;;;;;;;;;5.00;5.00;;;;;;;;5059147;28;11667;-74
2020/12/29 19:24:16;;;;;;;;;4.00;4.00;;;;;;;;5056451;28;11516;-70
2020/12/29 19:26:42;;;;;;;;;6.50;3.00;;;;;;;;5060633;28;8864;-72
2020/12/29 19:29:08;;;;;;;;;2.00;2.00;;;;;;;;5060519;28;8948;-72
2020/12/29 19:31:34;;;;;;;;;3.50;2.25;;;;;;;;5059525;28;11609;-71
2020/12/29 19:34:00;;;;;;;;;1.00;1.00;;;;;;;;5055304;28;11498;-72